createdAt,value
2023-07-05T00:01:23.649Z,2.57
2023-07-05T00:03:51.761Z,2.57
2023-07-05T00:06:19.840Z,2.53
2023-07-05T00:08:49.058Z,2.77
2023-07-05T00:11:18.609Z,2.50
2023-07-05T00:13:46.626Z,2.03
2023-07-05T00:16:14.791Z,2.70
2023-07-05T00:18:44.847Z,2.73
2023-07-05T00:21:12.288Z,2.47
2023-07-05T00:23:41.255Z,2.30
2023-07-05T00:26:09.320Z,3.20
2023-07-05T00:28:39.389Z,3.33
2023-07-05T00:31:10.106Z,3.13
2023-07-05T00:33:40.140Z,2.80
2023-07-05T00:36:08.421Z,3.13
2023-07-05T00:38:38.510Z,2.93
2023-07-05T00:41:06.627Z,3.80
2023-07-05T00:43:33.774Z,4.07
2023-07-05T00:46:22.870Z,4.27
2023-07-05T00:49:05.298Z,4.00
2023-07-05T00:51:57.171Z,3.87
2023-07-05T00:54:33.472Z,3.53
2023-07-05T00:57:26.728Z,3.63
2023-07-05T01:00:11.470Z,3.17
2023-07-05T01:02:43.177Z,3.23
2023-07-05T01:05:13.328Z,3.10
2023-07-05T01:07:42.445Z,3.17
2023-07-05T01:10:21.613Z,3.40
2023-07-05T01:13:08.130Z,3.10
2023-07-05T01:15:43.971Z,3.17
2023-07-05T01:18:45.228Z,3.07
2023-07-05T01:21:34.171Z,3.17
2023-07-05T01:24:11.981Z,3.17
2023-07-05T01:27:24.723Z,3.07
2023-07-05T01:30:17.479Z,3.43
2023-07-05T01:32:56.781Z,3.97
2023-07-05T01:35:32.592Z,3.90
2023-07-05T01:38:07.129Z,3.50
2023-07-05T01:40:34.008Z,3.37
2023-07-05T01:43:07.045Z,3.40
2023-07-05T01:45:44.324Z,3.37
2023-07-05T01:48:35.695Z,4.37
2023-07-05T01:51:18.235Z,3.97
2023-07-05T01:54:18.036Z,4.10
2023-07-05T01:57:19.677Z,3.70
2023-07-05T02:00:05.888Z,3.37
2023-07-05T02:02:39.320Z,4.00
2023-07-05T02:05:11.273Z,4.07
2023-07-05T02:07:40.961Z,3.53
2023-07-05T02:10:10.230Z,3.83
2023-07-05T02:12:37.225Z,4.00
2023-07-05T02:15:05.699Z,3.87
2023-07-05T02:17:32.768Z,4.03
2023-07-05T02:20:01.934Z,3.60
2023-07-05T02:22:29.007Z,3.20
2023-07-05T02:24:58.085Z,3.33
2023-07-05T02:27:25.038Z,2.40
2023-07-05T02:29:55.675Z,2.70
2023-07-05T02:32:23.154Z,3.30
2023-07-05T02:34:50.119Z,2.67
2023-07-05T02:37:20.465Z,2.80
2023-07-05T02:39:52.621Z,2.60
2023-07-05T02:42:22.728Z,3.53
2023-07-05T02:44:50.709Z,2.60
2023-07-05T02:47:21.280Z,2.80
2023-07-05T02:49:51.464Z,1.80
2023-07-05T02:52:20.437Z,2.17
2023-07-05T02:54:47.489Z,2.57
2023-07-05T02:57:17.636Z,2.40
2023-07-05T02:59:45.672Z,2.60
2023-07-05T03:02:16.113Z,2.63
2023-07-05T03:04:44.025Z,2.20
2023-07-05T03:07:14.144Z,2.30
2023-07-05T03:09:49.777Z,2.47
2023-07-05T03:12:21.448Z,2.73
2023-07-05T03:14:50.295Z,2.40
2023-07-05T03:17:17.365Z,2.00
2023-07-05T03:19:51.639Z,1.83
2023-07-05T03:22:18.583Z,1.73
2023-07-05T03:24:50.584Z,2.13
2023-07-05T03:27:17.609Z,2.03
2023-07-05T03:29:49.018Z,1.73
2023-07-05T03:32:19.083Z,1.67
2023-07-05T03:34:46.132Z,2.40
2023-07-05T03:37:13.225Z,1.90
2023-07-05T03:39:40.271Z,2.03
2023-07-05T03:42:07.717Z,2.00
2023-07-05T03:44:37.799Z,2.53
2023-07-05T03:47:10.749Z,1.83
2023-07-05T03:49:40.850Z,2.00
2023-07-05T03:52:10.981Z,1.97
2023-07-05T03:54:41.048Z,2.30
2023-07-05T03:57:10.390Z,2.40
2023-07-05T03:59:38.420Z,2.70
2023-07-05T04:02:06.800Z,2.57
2023-07-05T04:04:34.109Z,2.13
2023-07-05T04:07:01.081Z,2.33
2023-07-05T04:09:46.830Z,2.73
2023-07-05T04:12:15.857Z,2.73
2023-07-05T04:14:45.966Z,3.37
2023-07-05T04:17:13.987Z,4.10
2023-07-05T04:19:40.975Z,5.00
2023-07-05T04:22:07.912Z,3.83
2023-07-05T04:24:37.955Z,3.43
2023-07-05T04:27:07.095Z,2.90
2023-07-05T04:29:35.576Z,3.37
2023-07-05T04:32:02.624Z,2.60
2023-07-05T04:34:29.621Z,2.70
2023-07-05T04:36:59.967Z,2.50
2023-07-05T04:39:28.035Z,2.60
2023-07-05T04:41:56.892Z,2.80
2023-07-05T04:44:26.889Z,2.50
2023-07-05T04:46:57.333Z,2.17
2023-07-05T04:49:25.287Z,2.20
2023-07-05T04:51:52.242Z,2.50
2023-07-05T04:54:19.241Z,2.67
2023-07-05T04:56:56.627Z,2.50
2023-07-05T04:59:30.793Z,2.40
2023-07-05T05:02:00.877Z,2.13
2023-07-05T05:04:34.074Z,1.93
2023-07-05T05:07:02.098Z,1.70
2023-07-05T05:09:32.959Z,1.60
2023-07-05T05:12:01.963Z,2.00
2023-07-05T05:14:32.051Z,2.23
2023-07-05T05:17:02.147Z,2.90
2023-07-05T05:19:32.258Z,3.53
2023-07-05T05:21:59.265Z,3.37
2023-07-05T05:24:29.322Z,2.30
2023-07-05T05:26:59.368Z,2.20
2023-07-05T05:29:27.356Z,2.50
2023-07-05T05:31:54.420Z,2.47
2023-07-05T05:34:21.463Z,2.40
2023-07-05T05:36:50.405Z,2.20
2023-07-05T05:39:17.401Z,2.87
2023-07-05T05:41:45.480Z,2.73
2023-07-05T05:44:12.460Z,2.93
2023-07-05T05:46:41.489Z,2.77
2023-07-05T05:49:08.677Z,3.43
2023-07-05T05:51:37.068Z,3.27
2023-07-05T05:54:06.840Z,3.10
2023-07-05T05:56:36.974Z,3.20
2023-07-05T05:59:09.939Z,3.43
2023-07-05T06:01:38.010Z,4.00
2023-07-05T06:04:07.252Z,2.80
2023-07-05T06:06:34.345Z,3.83
2023-07-05T06:09:04.081Z,3.00
2023-07-05T06:11:34.488Z,2.87
2023-07-05T06:14:03.646Z,3.33
2023-07-05T06:16:30.762Z,3.30
2023-07-05T06:19:03.817Z,2.83
2023-07-05T06:21:33.920Z,3.03
2023-07-05T06:24:04.143Z,2.93
2023-07-05T06:26:31.571Z,3.37
2023-07-05T06:29:00.698Z,3.53
2023-07-05T06:31:34.449Z,3.13
2023-07-05T06:34:07.818Z,4.13
2023-07-05T06:36:38.817Z,3.70
2023-07-05T06:39:05.871Z,3.80
2023-07-05T06:41:35.108Z,3.40
2023-07-05T06:44:05.381Z,3.17
2023-07-05T06:46:38.869Z,3.43
2023-07-05T06:49:06.245Z,3.37
2023-07-05T06:51:36.599Z,4.37
2023-07-05T06:54:06.023Z,3.40
2023-07-05T06:56:36.197Z,3.27
2023-07-05T06:59:03.426Z,3.50
2023-07-05T07:01:31.591Z,3.17
2023-07-05T07:04:06.512Z,3.70
2023-07-05T07:06:36.652Z,2.90
2023-07-05T07:09:07.185Z,3.40
2023-07-05T07:11:36.200Z,3.30
2023-07-05T07:14:05.290Z,3.10
2023-07-05T07:16:33.329Z,2.63
2023-07-05T07:19:00.892Z,3.03
2023-07-05T07:21:31.664Z,2.83
2023-07-05T07:24:00.770Z,3.47
2023-07-05T07:26:31.026Z,3.53
2023-07-05T07:28:58.509Z,3.20
2023-07-05T07:31:33.589Z,2.63
2023-07-05T07:34:02.482Z,2.60
2023-07-05T07:36:34.471Z,2.97
2023-07-05T07:39:05.169Z,3.03
2023-07-05T07:41:36.596Z,2.23
2023-07-05T07:44:10.253Z,2.53
2023-07-05T07:46:41.316Z,2.20
2023-07-05T07:49:10.327Z,2.43
2023-07-05T07:51:41.101Z,2.97
2023-07-05T07:54:16.915Z,2.50
2023-07-05T07:56:47.742Z,2.13
2023-07-05T07:59:17.474Z,2.57
2023-07-05T08:01:47.367Z,3.17
2023-07-05T08:04:15.543Z,2.37
2023-07-05T08:06:45.736Z,2.30
2023-07-05T08:09:27.272Z,1.93
2023-07-05T08:11:57.710Z,1.70
2023-07-05T08:14:25.090Z,2.13
2023-07-05T08:16:53.178Z,1.90
2023-07-05T08:19:22.296Z,2.73
2023-07-05T08:21:51.680Z,2.00
2023-07-05T08:26:54.589Z,2.13
2023-07-05T08:29:21.908Z,2.00
2023-07-05T08:31:52.605Z,2.33
2023-07-05T08:34:20.094Z,2.30
2023-07-05T08:36:48.096Z,2.50
2023-07-05T08:39:17.385Z,1.93
2023-07-05T08:42:01.829Z,2.17
2023-07-05T08:44:59.011Z,2.10
2023-07-05T08:47:43.561Z,3.23
2023-07-05T08:50:26.851Z,1.80
2023-07-05T08:53:17.166Z,1.97
2023-07-05T08:56:07.137Z,1.80
2023-07-05T08:59:02.370Z,2.07
2023-07-05T09:01:37.932Z,1.47
2023-07-05T09:04:14.073Z,2.00
2023-07-05T09:07:08.447Z,1.83
2023-07-05T09:09:51.891Z,1.87
2023-07-05T09:12:50.809Z,2.10
2023-07-05T09:15:43.042Z,2.20
2023-07-05T09:18:47.656Z,2.30
2023-07-05T09:21:29.293Z,1.80
2023-07-05T09:24:12.833Z,2.00
2023-07-05T09:26:57.118Z,1.97
2023-07-05T09:29:34.316Z,1.93
2023-07-05T09:32:20.512Z,2.00
2023-07-05T09:34:52.183Z,3.00
2023-07-05T09:37:33.193Z,2.03
2023-07-05T09:40:12.285Z,1.83
2023-07-05T09:42:50.248Z,2.60
2023-07-05T09:45:27.954Z,2.67
2023-07-05T09:48:04.026Z,2.27
2023-07-05T09:50:32.348Z,2.03
2023-07-05T09:53:28.683Z,2.83
2023-07-05T09:56:10.841Z,2.27
2023-07-05T09:58:39.883Z,2.43
2023-07-05T10:01:24.769Z,1.83
2023-07-05T10:03:59.107Z,1.87
2023-07-05T10:06:28.405Z,1.57
2023-07-05T10:09:01.834Z,1.50
2023-07-05T10:11:35.576Z,1.90
2023-07-05T10:14:18.310Z,1.37
2023-07-05T10:16:54.772Z,1.63
2023-07-05T10:19:39.409Z,1.90
2023-07-05T10:22:27.269Z,1.80
2023-07-05T10:25:02.535Z,1.50
2023-07-05T10:27:42.364Z,1.90
2023-07-05T10:30:25.817Z,1.90
2023-07-05T10:33:14.379Z,2.47
2023-07-05T10:36:12.310Z,1.80
2023-07-05T10:38:49.645Z,2.20
2023-07-05T10:41:34.413Z,1.87
2023-07-05T10:44:08.983Z,1.53
2023-07-05T10:46:39.778Z,2.17
2023-07-05T10:49:15.421Z,1.90
2023-07-05T10:51:49.542Z,1.53
2023-07-05T10:54:21.814Z,2.23
2023-07-05T10:56:50.465Z,2.70
2023-07-05T10:59:39.991Z,2.10
2023-07-05T11:02:24.580Z,2.27
2023-07-05T11:04:54.543Z,2.73
2023-07-05T11:07:23.893Z,2.50
2023-07-05T11:09:50.968Z,1.90
2023-07-05T11:12:30.856Z,2.00
2023-07-05T11:15:05.608Z,2.10
2023-07-05T11:17:39.627Z,1.63
2023-07-05T11:20:32.554Z,2.23
2023-07-05T11:22:59.717Z,2.20
2023-07-05T11:26:04.193Z,2.90
2023-07-05T11:28:44.438Z,2.80
2023-07-05T11:31:32.712Z,2.83
2023-07-05T11:34:26.542Z,2.77
2023-07-05T11:37:03.060Z,2.93
2023-07-05T11:39:51.931Z,2.33
2023-07-05T11:42:26.586Z,2.13
2023-07-05T11:45:08.776Z,1.90
2023-07-05T11:47:40.142Z,1.90
2023-07-05T11:50:09.605Z,1.77
2023-07-05T11:52:40.228Z,2.70
2023-07-05T11:55:21.434Z,2.83
2023-07-05T11:58:13.018Z,2.30
2023-07-05T12:00:48.987Z,2.10
2023-07-05T12:03:39.220Z,1.90
2023-07-05T12:06:21.723Z,2.10
2023-07-05T12:08:56.945Z,2.20
2023-07-05T12:12:00.194Z,2.40
2023-07-05T12:14:27.503Z,1.87
2023-07-05T12:17:02.636Z,1.50
2023-07-05T12:19:31.645Z,1.70
2023-07-05T12:22:04.066Z,1.87
2023-07-05T12:24:51.790Z,1.50
2023-07-05T12:27:30.334Z,2.23
2023-07-05T12:29:59.979Z,2.20
2023-07-05T12:32:30.725Z,2.30
2023-07-05T12:35:15.750Z,1.97
2023-07-05T12:37:46.641Z,2.33
2023-07-05T12:40:14.119Z,2.77
2023-07-05T12:42:53.873Z,2.10
2023-07-05T12:45:35.779Z,2.20
2023-07-05T12:48:22.428Z,2.83
2023-07-05T12:50:49.376Z,2.55
2023-07-05T12:53:23.536Z,2.33
2023-07-05T12:56:04.786Z,1.87
2023-07-05T12:58:35.370Z,1.98
2023-07-05T13:01:06.005Z,2.07
2023-07-05T13:03:33.670Z,2.03
2023-07-05T13:06:03.402Z,2.20
2023-07-05T13:08:30.878Z,2.05
2023-07-05T13:10:59.993Z,2.08
2023-07-05T13:13:36.597Z,2.17
2023-07-05T13:16:48.112Z,2.33
2023-07-05T13:19:22.711Z,2.53
2023-07-05T13:21:52.748Z,2.00
2023-07-05T13:24:28.924Z,2.55
2023-07-05T13:27:13.981Z,2.10
2023-07-05T13:29:43.755Z,1.97
2023-07-05T13:32:30.332Z,2.50
2023-07-05T13:35:00.779Z,2.07
2023-07-05T13:37:30.730Z,1.83
2023-07-05T13:40:08.086Z,2.03
2023-07-05T13:42:35.506Z,2.43
2023-07-05T13:45:13.078Z,2.77
2023-07-05T13:47:42.001Z,2.07
2023-07-05T13:50:09.858Z,1.73
2023-07-05T13:52:41.370Z,2.33
2023-07-05T13:55:19.696Z,2.33
2023-07-05T13:57:59.840Z,2.73
2023-07-05T14:00:32.089Z,1.93
2023-07-05T14:03:01.237Z,1.83
2023-07-05T14:05:30.995Z,2.20
2023-07-05T14:08:03.849Z,1.80
2023-07-05T14:10:32.316Z,1.90
2023-07-05T14:13:00.061Z,1.80
2023-07-05T14:15:40.902Z,1.90
2023-07-05T14:18:16.504Z,2.00
2023-07-05T14:20:46.473Z,2.00
2023-07-05T14:23:15.915Z,2.00
2023-07-05T14:25:48.157Z,2.37
2023-07-05T14:28:17.914Z,2.17
2023-07-05T14:30:46.990Z,1.83
2023-07-05T14:33:20.694Z,2.10
2023-07-05T14:35:57.765Z,1.90
2023-07-05T14:38:28.228Z,2.00
2023-07-05T14:40:58.362Z,2.07
2023-07-05T14:43:25.417Z,1.90
2023-07-05T14:45:55.588Z,2.30
2023-07-05T14:48:24.758Z,2.27
2023-07-05T14:50:53.069Z,2.50
2023-07-05T14:53:29.046Z,2.53
2023-07-05T14:56:00.926Z,3.30
2023-07-05T14:58:29.727Z,2.40
2023-07-05T15:00:58.649Z,2.90
2023-07-05T15:03:41.029Z,2.30
2023-07-05T15:06:11.079Z,4.27
2023-07-05T15:08:41.181Z,3.93
2023-07-05T15:11:13.722Z,3.40
2023-07-05T15:13:47.021Z,3.27
2023-07-05T15:16:21.646Z,2.47
2023-07-05T15:18:51.904Z,3.27
2023-07-05T15:21:23.746Z,2.80
2023-07-05T15:23:55.348Z,2.97
2023-07-05T15:26:25.468Z,2.87
2023-07-05T15:28:55.578Z,3.00
2023-07-05T15:31:25.207Z,2.90
2023-07-05T15:33:53.367Z,3.07
2023-07-05T15:36:23.657Z,2.70
2023-07-05T15:38:53.757Z,2.10
2023-07-05T15:41:21.690Z,2.40
2023-07-05T15:43:48.800Z,3.40
2023-07-05T15:46:16.280Z,2.43
2023-07-05T15:48:44.844Z,2.20
2023-07-05T15:51:13.116Z,2.47
2023-07-05T15:53:40.402Z,3.07
2023-07-05T15:56:07.522Z,3.13
2023-07-05T15:58:44.013Z,3.40
2023-07-05T16:01:15.726Z,2.67
2023-07-05T16:03:42.892Z,2.70
2023-07-05T16:06:11.233Z,1.77
2023-07-05T16:08:38.271Z,1.20
2023-07-05T16:11:13.462Z,1.33
2023-07-05T16:13:46.685Z,2.17
2023-07-05T16:16:13.833Z,1.90
2023-07-05T16:18:43.735Z,2.10
2023-07-05T16:21:11.004Z,2.27
2023-07-05T16:23:39.770Z,2.37
2023-07-05T16:26:09.867Z,2.83
2023-07-05T16:28:40.137Z,2.87
2023-07-05T16:31:10.592Z,4.47
2023-07-05T16:33:37.728Z,3.87
2023-07-05T16:36:15.980Z,4.00
2023-07-05T16:38:46.166Z,3.50
2023-07-05T16:41:14.684Z,3.80
2023-07-05T16:43:45.006Z,3.13
2023-07-05T16:46:12.505Z,3.80
2023-07-05T16:48:39.766Z,4.00
2023-07-05T16:51:07.140Z,3.33
2023-07-05T16:53:35.120Z,3.63
2023-07-05T16:56:03.984Z,3.63
2023-07-05T16:58:30.963Z,3.10
2023-07-05T17:01:06.660Z,3.33
2023-07-05T17:03:40.436Z,3.67
2023-07-05T17:06:09.921Z,3.20
2023-07-05T17:08:39.454Z,3.47
2023-07-05T17:11:09.460Z,3.27
2023-07-05T17:13:38.045Z,3.10
2023-07-05T17:16:09.282Z,3.77
2023-07-05T17:18:38.472Z,3.07
2023-07-05T17:21:09.105Z,2.80
2023-07-05T17:23:39.425Z,2.30
2023-07-05T17:26:14.408Z,2.63
2023-07-05T17:28:45.937Z,2.97
2023-07-05T17:31:21.921Z,3.30
2023-07-05T17:33:50.239Z,2.97
2023-07-05T17:36:21.805Z,3.23
2023-07-05T17:38:49.961Z,3.17
2023-07-05T17:41:18.060Z,2.63
2023-07-05T17:43:48.214Z,3.20
2023-07-05T17:46:30.993Z,3.50
2023-07-05T17:49:03.637Z,3.13
2023-07-05T17:51:35.221Z,3.00
2023-07-05T17:54:03.339Z,2.70
2023-07-05T17:56:30.804Z,2.73
2023-07-05T17:59:01.022Z,3.03
2023-07-05T18:01:31.512Z,3.17
2023-07-05T18:03:58.714Z,3.47
2023-07-05T18:06:27.035Z,2.90
2023-07-05T18:08:55.192Z,2.70
2023-07-05T18:11:22.832Z,2.53
2023-07-05T18:13:54.577Z,2.70
2023-07-05T18:16:23.720Z,2.70
2023-07-05T18:18:53.048Z,2.63
2023-07-05T18:21:27.320Z,2.67
2023-07-05T18:23:54.874Z,2.63
2023-07-05T18:26:24.736Z,2.93
2023-07-05T18:28:53.521Z,2.67
2023-07-05T18:31:24.222Z,2.60
2023-07-05T18:33:52.085Z,2.43
2023-07-05T18:36:22.607Z,2.40
2023-07-05T18:38:53.671Z,2.40
2023-07-05T18:41:23.915Z,2.20
2023-07-05T18:43:50.970Z,3.30
2023-07-05T18:46:21.250Z,3.00
2023-07-05T18:48:51.853Z,3.03
2023-07-05T18:51:20.021Z,2.80
2023-07-05T18:53:47.249Z,2.60
2023-07-05T18:56:19.102Z,2.17
2023-07-05T18:58:47.830Z,2.37
2023-07-05T19:01:20.038Z,2.50
2023-07-05T19:03:50.825Z,2.00
2023-07-05T19:06:21.233Z,2.07
2023-07-05T19:08:49.453Z,2.00
2023-07-05T19:11:31.253Z,2.00
2023-07-05T19:13:59.659Z,2.33
2023-07-05T19:16:30.039Z,2.00
2023-07-05T19:18:59.446Z,2.33
2023-07-05T19:21:30.514Z,2.20
2023-07-05T19:24:17.681Z,2.67
2023-07-05T19:26:45.534Z,2.37
2023-07-05T19:29:14.057Z,2.43
2023-07-05T19:31:44.236Z,2.53
2023-07-05T19:34:12.257Z,1.90
2023-07-05T19:36:40.225Z,2.77
2023-07-05T19:39:10.344Z,2.07
2023-07-05T19:41:37.652Z,2.67
2023-07-05T19:44:08.687Z,1.90
2023-07-05T19:46:37.122Z,2.17
2023-07-05T19:49:04.730Z,2.50
2023-07-05T19:51:32.165Z,3.10
2023-07-05T19:53:59.623Z,2.60
2023-07-05T19:56:31.985Z,3.00
2023-07-05T19:59:02.500Z,2.60
2023-07-05T20:01:30.068Z,2.13
2023-07-05T20:03:59.308Z,2.23
2023-07-05T20:06:26.890Z,1.93
2023-07-05T20:08:58.655Z,2.13
2023-07-05T20:11:28.728Z,2.23
2023-07-05T20:13:59.314Z,2.67
2023-07-05T20:16:29.457Z,2.00
2023-07-05T20:18:58.781Z,2.43
2023-07-05T20:21:30.070Z,2.37
2023-07-05T20:24:00.088Z,2.70
2023-07-05T20:26:30.145Z,3.07
2023-07-05T20:29:00.369Z,3.27
2023-07-05T20:31:28.517Z,3.07
2023-07-05T20:33:57.874Z,2.50
2023-07-05T20:36:28.616Z,2.90
2023-07-05T20:38:55.972Z,2.60
2023-07-05T20:41:27.576Z,2.40
2023-07-05T20:43:54.629Z,2.87
2023-07-05T20:46:22.846Z,2.40
2023-07-05T20:48:50.922Z,3.07
2023-07-05T20:51:19.943Z,3.40
2023-07-05T20:53:47.264Z,2.70
2023-07-05T20:56:18.714Z,2.20
2023-07-05T20:58:48.175Z,2.00
2023-07-05T21:01:21.261Z,1.87
2023-07-05T21:03:53.704Z,1.87
2023-07-05T21:06:24.341Z,1.67
2023-07-05T21:08:54.510Z,1.60
2023-07-05T21:11:24.835Z,1.70
2023-07-05T21:13:53.969Z,1.40
2023-07-05T21:16:22.608Z,1.37
2023-07-05T21:18:51.999Z,1.43
2023-07-05T21:21:22.275Z,1.40
2023-07-05T21:23:50.541Z,1.30
2023-07-05T21:26:20.745Z,1.20
2023-07-05T21:28:50.854Z,1.40
2023-07-05T21:31:20.920Z,1.37
2023-07-05T21:33:48.281Z,1.10
2023-07-05T21:36:15.393Z,1.20
2023-07-05T21:38:43.830Z,1.30
2023-07-05T21:41:14.950Z,1.23
2023-07-05T21:43:42.294Z,1.33
2023-07-05T21:46:09.502Z,2.07
2023-07-05T21:48:39.118Z,2.30
2023-07-05T21:51:10.973Z,1.80
2023-07-05T21:53:41.090Z,2.00
2023-07-05T21:56:09.168Z,2.20
2023-07-05T21:58:38.261Z,2.40
2023-07-05T22:01:08.032Z,2.27
2023-07-05T22:03:36.873Z,2.50
2023-07-05T22:06:05.524Z,2.50
2023-07-05T22:08:33.706Z,3.03
2023-07-05T22:11:03.827Z,3.87
2023-07-05T22:13:32.953Z,4.13
2023-07-05T22:16:02.912Z,2.40
2023-07-05T22:18:34.805Z,2.67
2023-07-05T22:21:03.016Z,2.47
2023-07-05T22:23:37.078Z,3.10
2023-07-05T22:26:05.207Z,2.90
2023-07-05T22:28:32.796Z,3.00
2023-07-05T22:31:02.921Z,3.20
2023-07-05T22:33:33.029Z,2.87
2023-07-05T22:36:04.163Z,3.23
2023-07-05T22:38:32.843Z,3.00
2023-07-05T22:41:02.855Z,3.77
2023-07-05T22:43:32.467Z,3.40
2023-07-05T22:46:04.420Z,2.87
2023-07-05T22:48:35.305Z,2.90
2023-07-05T22:51:05.138Z,2.97
2023-07-05T22:53:35.299Z,2.83
2023-07-05T22:56:04.197Z,2.70
2023-07-05T22:58:34.396Z,3.00
2023-07-05T23:01:06.912Z,3.13
2023-07-05T23:03:38.715Z,2.63
2023-07-05T23:06:11.757Z,2.83
2023-07-05T23:08:39.669Z,3.00
2023-07-05T23:11:13.018Z,3.53
2023-07-05T23:13:45.385Z,3.50
2023-07-05T23:16:15.925Z,3.73
2023-07-05T23:18:49.095Z,3.27
2023-07-05T23:21:18.495Z,3.03
2023-07-05T23:23:51.217Z,3.03
2023-07-05T23:26:20.014Z,3.50
2023-07-05T23:28:54.774Z,3.47
2023-07-05T23:31:34.102Z,3.87
2023-07-05T23:34:01.321Z,3.80
2023-07-05T23:36:31.924Z,3.33
2023-07-05T23:39:02.149Z,3.33
2023-07-05T23:41:32.503Z,4.03
2023-07-05T23:44:12.533Z,4.60
2023-07-05T23:46:42.727Z,3.60
2023-07-05T23:49:12.820Z,4.10
2023-07-05T23:51:43.678Z,3.60
2023-07-05T23:54:13.717Z,3.70
2023-07-05T23:56:47.832Z,4.10
2023-07-05T23:59:20.629Z,4.47
